createdAt,value
2022-10-18T00:02:07.580Z,15.30
2022-10-18T00:04:34.446Z,14.98
2022-10-18T00:07:00.971Z,16.07
2022-10-18T00:09:27.707Z,14.55
2022-10-18T00:11:55.044Z,14.90
2022-10-18T00:14:21.593Z,16.15
2022-10-18T00:16:48.272Z,12.35
2022-10-18T00:19:14.909Z,14.07
2022-10-18T00:21:41.599Z,17.60
2022-10-18T00:24:08.587Z,16.88
2022-10-18T00:26:35.136Z,18.13
2022-10-18T00:29:05.389Z,19.33
2022-10-18T00:31:34.466Z,20.40
2022-10-18T00:34:04.679Z,19.27
2022-10-18T00:36:34.200Z,21.63
2022-10-18T00:39:02.278Z,22.25
2022-10-18T00:41:31.254Z,20.02
2022-10-18T00:43:57.775Z,17.23
2022-10-18T00:46:25.959Z,20.85
2022-10-18T00:51:28.626Z,20.63
2022-10-18T00:53:55.251Z,18.50
2022-10-18T00:56:22.213Z,19.13
2022-10-18T00:58:49.436Z,18.45
2022-10-18T01:01:16.021Z,17.75
2022-10-18T01:03:42.649Z,19.20
2022-10-18T01:06:09.791Z,18.35
2022-10-18T01:08:55.694Z,19.40
2022-10-18T01:11:46.751Z,18.92
2022-10-18T01:14:26.362Z,19.35
2022-10-18T01:17:35.650Z,17.65
2022-10-18T01:20:35.849Z,17.38
2022-10-18T01:23:11.493Z,18.23
2022-10-18T01:25:38.014Z,19.85
2022-10-18T01:28:40.292Z,19.25
2022-10-18T01:31:14.945Z,19.75
2022-10-18T01:33:45.758Z,18.50
2022-10-18T01:36:21.046Z,22.43
2022-10-18T01:38:51.740Z,21.10
2022-10-18T01:41:20.441Z,20.27
2022-10-18T01:43:50.107Z,19.42
2022-10-18T01:46:21.902Z,18.52
2022-10-18T01:48:49.526Z,21.07
2022-10-18T01:51:19.999Z,19.65
2022-10-18T01:53:47.036Z,22.42
2022-10-18T01:56:36.377Z,21.08
2022-10-18T01:59:17.415Z,18.65
2022-10-18T02:02:07.924Z,20.63
2022-10-18T02:04:34.910Z,19.05
2022-10-18T02:07:15.100Z,21.48
2022-10-18T02:09:50.421Z,25.73
2022-10-18T02:12:19.211Z,23.30
2022-10-18T02:14:47.745Z,25.10
2022-10-18T02:17:16.943Z,26.30
2022-10-18T02:19:47.927Z,25.55
2022-10-18T02:22:16.081Z,24.27
2022-10-18T02:24:48.523Z,22.50
2022-10-18T02:27:15.358Z,21.93
2022-10-18T02:29:42.839Z,22.73
2022-10-18T02:32:24.277Z,24.27
2022-10-18T02:35:00.622Z,22.63
2022-10-18T02:37:35.090Z,22.98
2022-10-18T02:40:02.806Z,20.80
2022-10-18T02:42:44.322Z,22.38
2022-10-18T02:45:11.916Z,22.15
2022-10-18T02:47:38.499Z,22.08
2022-10-18T02:50:05.679Z,22.13
2022-10-18T02:52:32.420Z,23.60
2022-10-18T02:54:58.886Z,21.88
2022-10-18T02:57:25.416Z,20.23
2022-10-18T02:59:51.886Z,22.00
2022-10-18T03:02:18.650Z,23.52
2022-10-18T03:04:45.179Z,22.17
2022-10-18T03:07:11.696Z,21.35
2022-10-18T03:09:38.454Z,23.85
2022-10-18T03:12:05.111Z,23.50
2022-10-18T03:14:31.681Z,20.70
2022-10-18T03:16:58.345Z,25.57
2022-10-18T03:19:24.911Z,22.13
2022-10-18T03:21:51.424Z,23.23
2022-10-18T03:24:18.265Z,22.67
2022-10-18T03:26:44.785Z,25.95
2022-10-18T03:29:11.740Z,22.50
2022-10-18T03:31:38.462Z,22.58
2022-10-18T03:34:05.035Z,22.45
2022-10-18T03:36:31.529Z,25.73
2022-10-18T03:38:58.005Z,24.50
2022-10-18T03:41:24.616Z,24.87
2022-10-18T03:43:52.213Z,24.35
2022-10-18T03:46:18.725Z,22.15
2022-10-18T03:48:45.193Z,23.92
2022-10-18T03:51:11.681Z,23.42
2022-10-18T03:53:38.186Z,20.63
2022-10-18T03:56:04.979Z,22.38
2022-10-18T03:58:31.534Z,22.15
2022-10-18T04:00:58.084Z,25.10
2022-10-18T04:03:24.825Z,25.73
2022-10-18T04:05:51.400Z,23.40
2022-10-18T04:08:18.491Z,22.50
2022-10-18T04:10:45.814Z,23.58
2022-10-18T04:13:12.508Z,23.08
2022-10-18T04:15:39.011Z,21.75
2022-10-18T04:18:05.529Z,22.73
2022-10-18T04:20:31.961Z,21.73
2022-10-18T04:22:58.500Z,25.05
2022-10-18T04:25:25.410Z,22.75
2022-10-18T04:27:52.326Z,23.23
2022-10-18T04:30:19.083Z,25.43
2022-10-18T04:32:45.578Z,22.52
2022-10-18T04:35:12.237Z,24.55
2022-10-18T04:37:38.817Z,22.98
2022-10-18T04:40:05.865Z,22.70
2022-10-18T04:42:32.355Z,22.37
2022-10-18T04:44:58.901Z,21.35
2022-10-18T04:47:25.365Z,26.15
2022-10-18T04:49:51.865Z,25.20
2022-10-18T04:52:18.459Z,23.45
2022-10-18T04:54:44.949Z,23.17
2022-10-18T04:57:11.484Z,23.70
2022-10-18T04:59:38.051Z,22.60
2022-10-18T05:02:04.790Z,23.95
2022-10-18T05:04:31.569Z,27.45
2022-10-18T05:06:58.037Z,23.40
2022-10-18T05:09:24.842Z,26.02
2022-10-18T05:11:51.401Z,24.27
2022-10-18T05:14:17.806Z,26.15
2022-10-18T05:16:44.295Z,22.13
2022-10-18T05:19:10.814Z,23.20
2022-10-18T05:21:37.422Z,24.15
2022-10-18T05:24:04.171Z,22.58
2022-10-18T05:26:30.721Z,22.60
2022-10-18T05:28:57.516Z,25.17
2022-10-18T05:31:24.182Z,24.17
2022-10-18T05:33:50.758Z,25.48
2022-10-18T05:36:17.338Z,26.95
2022-10-18T05:38:45.298Z,24.15
2022-10-18T05:41:12.952Z,23.45
2022-10-18T05:43:40.332Z,24.47
2022-10-18T05:46:13.716Z,23.95
2022-10-18T05:48:43.483Z,23.35
2022-10-18T05:51:10.079Z,21.35
2022-10-18T05:53:38.255Z,22.50
2022-10-18T05:56:06.353Z,25.63
2022-10-18T05:58:33.312Z,23.23
2022-10-18T06:01:03.787Z,25.67
2022-10-18T06:03:30.876Z,21.55
2022-10-18T06:06:01.197Z,24.95
2022-10-18T06:08:27.855Z,23.03
2022-10-18T06:10:54.469Z,23.02
2022-10-18T06:13:21.004Z,23.25
2022-10-18T06:15:47.547Z,23.38
2022-10-18T06:18:14.085Z,22.73
2022-10-18T06:20:40.702Z,24.10
2022-10-18T06:23:07.632Z,21.02
2022-10-18T06:25:34.154Z,22.33
2022-10-18T06:28:00.647Z,23.20
2022-10-18T06:30:27.417Z,23.30
2022-10-18T06:32:53.934Z,25.33
2022-10-18T06:35:20.422Z,27.35
2022-10-18T06:37:46.900Z,25.63
2022-10-18T06:40:13.349Z,24.17
2022-10-18T06:42:40.314Z,22.15
2022-10-18T06:45:07.493Z,20.13
2022-10-18T06:47:34.062Z,24.30
2022-10-18T06:50:00.796Z,26.77
2022-10-18T06:52:27.651Z,27.98
2022-10-18T06:54:54.153Z,26.40
2022-10-18T06:57:21.559Z,26.77
2022-10-18T06:59:48.147Z,29.08
2022-10-18T07:02:17.134Z,28.15
2022-10-18T07:04:43.845Z,28.30
2022-10-18T07:07:10.411Z,25.20
2022-10-18T07:09:37.140Z,24.00
2022-10-18T07:12:03.917Z,22.85
2022-10-18T07:14:30.439Z,24.60
2022-10-18T07:16:59.470Z,23.02
2022-10-18T07:19:26.301Z,24.35
2022-10-18T07:21:52.992Z,25.27
2022-10-18T07:24:20.347Z,23.88
2022-10-18T07:26:47.047Z,21.88
2022-10-18T07:29:13.698Z,20.63
2022-10-18T07:31:40.852Z,22.30
2022-10-18T07:34:10.520Z,20.27
2022-10-18T07:36:37.487Z,18.27
2022-10-18T07:39:04.471Z,17.20
2022-10-18T07:41:33.368Z,16.70
2022-10-18T07:44:01.025Z,14.65
2022-10-18T07:46:27.693Z,16.73
2022-10-18T07:48:55.316Z,14.88
2022-10-18T07:51:22.209Z,17.73
2022-10-18T07:53:48.753Z,16.00
2022-10-18T07:56:21.058Z,16.33
2022-10-18T07:58:53.437Z,15.53
2022-10-18T08:01:21.899Z,18.15
2022-10-18T08:03:48.724Z,16.98
2022-10-18T08:06:17.952Z,17.42
2022-10-18T08:08:45.422Z,15.52
2022-10-18T08:11:17.407Z,17.23
2022-10-18T08:13:44.250Z,14.60
2022-10-18T08:16:13.255Z,16.55
2022-10-18T08:18:40.741Z,18.33
2022-10-18T08:21:09.771Z,14.93
2022-10-18T08:23:37.636Z,15.63
2022-10-18T08:26:06.692Z,15.57
2022-10-18T08:28:36.552Z,15.80
2022-10-18T08:31:05.146Z,16.77
2022-10-18T08:33:32.529Z,18.00
2022-10-18T08:36:01.216Z,16.63
2022-10-18T08:38:33.728Z,16.85
2022-10-18T08:41:13.019Z,16.08
2022-10-18T08:43:47.005Z,22.98
2022-10-18T08:46:14.065Z,16.67
2022-10-18T08:48:45.709Z,16.43
2022-10-18T08:51:31.573Z,14.77
2022-10-18T08:54:10.810Z,16.67
2022-10-18T08:56:39.684Z,15.38
2022-10-18T08:59:11.456Z,17.17
2022-10-18T09:02:00.527Z,16.87
2022-10-18T09:04:51.894Z,15.43
2022-10-18T09:07:24.425Z,16.15
2022-10-18T09:10:15.944Z,16.05
2022-10-18T09:13:13.423Z,14.25
2022-10-18T09:15:55.181Z,15.57
2022-10-18T09:18:30.901Z,16.88
2022-10-18T09:21:22.623Z,17.35
2022-10-18T09:23:51.100Z,16.35
2022-10-18T09:26:20.755Z,19.55
2022-10-18T09:29:29.678Z,16.40
2022-10-18T09:32:16.120Z,14.85
2022-10-18T09:34:56.527Z,15.35
2022-10-18T09:37:25.438Z,15.57
2022-10-18T09:39:59.944Z,16.45
2022-10-18T09:42:38.017Z,16.00
2022-10-18T09:45:26.805Z,16.88
2022-10-18T09:48:03.904Z,17.23
2022-10-18T09:50:34.477Z,17.20
2022-10-18T09:53:12.697Z,26.35
2022-10-18T09:55:51.776Z,17.27
2022-10-18T09:58:20.552Z,17.52
2022-10-18T10:00:52.647Z,18.77
2022-10-18T10:03:19.459Z,19.08
2022-10-18T10:05:46.029Z,18.58
2022-10-18T10:08:12.807Z,15.87
2022-10-18T10:10:41.355Z,19.08
2022-10-18T10:13:26.270Z,16.70
2022-10-18T10:16:03.225Z,18.45
2022-10-18T10:18:33.256Z,16.38
2022-10-18T10:21:03.125Z,16.10
2022-10-18T10:23:35.763Z,17.10
2022-10-18T10:26:05.038Z,17.67
2022-10-18T10:28:36.138Z,16.02
2022-10-18T10:31:19.713Z,17.48
2022-10-18T10:33:47.877Z,16.97
2022-10-18T10:36:20.177Z,17.13
2022-10-18T10:39:03.834Z,18.45
2022-10-18T10:44:05.098Z,19.73
2022-10-18T10:46:36.489Z,18.53
2022-10-18T10:49:35.047Z,16.95
2022-10-18T10:52:08.214Z,17.88
2022-10-18T10:54:38.953Z,16.48
2022-10-18T10:57:12.567Z,19.55
2022-10-18T10:59:48.430Z,16.67
2022-10-18T11:02:17.886Z,18.98
2022-10-18T11:04:55.543Z,14.02
2022-10-18T11:07:44.482Z,15.05
2022-10-18T11:10:15.758Z,15.68
2022-10-18T11:12:48.337Z,16.37
2022-10-18T11:15:25.306Z,14.70
2022-10-18T11:18:19.920Z,17.98
2022-10-18T11:20:56.246Z,16.20
2022-10-18T11:23:28.171Z,16.05
2022-10-18T11:26:07.073Z,15.07
2022-10-18T11:28:36.375Z,14.70
2022-10-18T11:31:24.651Z,15.85
2022-10-18T11:34:19.261Z,18.67
2022-10-18T11:37:36.036Z,16.83
2022-10-18T11:40:30.427Z,15.53
2022-10-18T11:43:03.392Z,16.10
2022-10-18T11:45:41.778Z,16.05
2022-10-18T11:48:20.149Z,16.98
2022-10-18T11:50:59.967Z,17.95
2022-10-18T11:53:52.018Z,17.17
2022-10-18T11:56:38.190Z,13.98
2022-10-18T11:59:26.659Z,15.93
2022-10-18T12:01:58.313Z,16.20
2022-10-18T12:04:35.224Z,15.52
2022-10-18T12:07:05.158Z,15.00
2022-10-18T12:09:39.800Z,14.95
2022-10-18T12:12:10.010Z,15.93
2022-10-18T12:14:40.572Z,19.58
2022-10-18T12:17:49.852Z,18.42
2022-10-18T12:20:40.006Z,16.37
2022-10-18T12:23:18.551Z,16.85
2022-10-18T12:25:53.629Z,15.88
2022-10-18T12:28:41.443Z,16.88
2022-10-18T12:31:19.072Z,19.50
2022-10-18T12:33:49.818Z,19.40
2022-10-18T12:36:22.195Z,16.40
2022-10-18T12:39:00.432Z,16.77
2022-10-18T12:41:30.249Z,16.15
2022-10-18T12:44:04.385Z,21.80
2022-10-18T12:46:54.943Z,16.80
2022-10-18T12:49:28.942Z,19.15
2022-10-18T12:51:59.469Z,17.60
2022-10-18T12:54:29.745Z,16.10
2022-10-18T12:56:57.386Z,17.10
2022-10-18T12:59:26.813Z,18.17
2022-10-18T13:01:53.413Z,19.02
2022-10-18T13:04:29.479Z,17.15
2022-10-18T13:07:05.218Z,23.08
2022-10-18T13:09:37.899Z,19.77
2022-10-18T13:12:10.389Z,17.83
2022-10-18T13:15:24.661Z,15.75
2022-10-18T13:18:19.785Z,18.23
2022-10-18T13:20:49.074Z,16.55
2022-10-18T13:23:38.263Z,18.80
2022-10-18T13:26:20.060Z,17.90
2022-10-18T13:28:56.819Z,20.10
2022-10-18T13:31:39.003Z,20.05
2022-10-18T13:34:24.077Z,19.92
2022-10-18T13:37:08.985Z,21.20
2022-10-18T13:39:37.009Z,19.70
2022-10-18T13:42:03.437Z,21.27
2022-10-18T13:44:37.628Z,19.80
2022-10-18T13:47:04.116Z,21.92
2022-10-18T13:49:39.536Z,18.27
2022-10-18T13:52:06.105Z,19.20
2022-10-18T13:55:00.238Z,21.95
2022-10-18T13:57:47.818Z,18.77
2022-10-18T14:00:28.703Z,20.45
2022-10-18T14:03:56.234Z,22.40
2022-10-18T14:06:25.280Z,20.30
2022-10-18T14:09:26.219Z,21.23
2022-10-18T14:12:35.701Z,19.58
2022-10-18T14:15:09.239Z,18.08
2022-10-18T14:17:51.510Z,18.33
2022-10-18T14:21:01.309Z,17.77
2022-10-18T14:23:34.608Z,20.63
2022-10-18T14:26:16.627Z,18.48
2022-10-18T14:29:00.463Z,19.75
2022-10-18T14:31:27.985Z,18.10
2022-10-18T14:33:58.273Z,15.97
2022-10-18T14:36:27.859Z,18.77
2022-10-18T14:39:00.323Z,20.30
2022-10-18T14:41:30.759Z,21.33
2022-10-18T14:44:15.630Z,17.15
2022-10-18T14:46:46.045Z,16.93
2022-10-18T14:49:14.030Z,18.45
2022-10-18T14:51:43.261Z,17.65
2022-10-18T14:54:19.180Z,17.50
2022-10-18T14:56:46.126Z,17.00
2022-10-18T14:59:24.595Z,15.53
2022-10-18T15:01:54.658Z,17.95
2022-10-18T15:04:27.664Z,17.23
2022-10-18T15:06:55.622Z,13.88
2022-10-18T15:09:24.106Z,18.70
2022-10-18T15:11:51.666Z,20.00
2022-10-18T15:14:19.821Z,20.08
2022-10-18T15:16:47.585Z,16.55
2022-10-18T15:19:13.966Z,23.00
2022-10-18T15:22:30.362Z,18.58
2022-10-18T15:25:08.431Z,17.90
2022-10-18T15:27:37.810Z,15.52
2022-10-18T15:30:38.424Z,17.73
2022-10-18T15:33:10.324Z,22.40
2022-10-18T15:35:38.840Z,35.92
2022-10-18T15:38:38.008Z,34.50
2022-10-18T15:41:36.485Z,32.50
2022-10-18T15:44:17.972Z,34.70
2022-10-18T15:46:46.023Z,35.78
2022-10-18T15:49:24.648Z,31.67
2022-10-18T15:52:10.664Z,30.90
2022-10-18T15:54:37.274Z,21.58
2022-10-18T15:57:09.092Z,23.42
2022-10-18T15:59:36.645Z,22.48
2022-10-18T16:02:03.243Z,25.85
2022-10-18T16:04:33.244Z,25.73
2022-10-18T16:07:00.463Z,24.27
2022-10-18T16:09:29.174Z,23.02
2022-10-18T16:11:57.294Z,23.40
2022-10-18T16:14:25.894Z,21.95
2022-10-18T16:16:55.418Z,22.73
2022-10-18T16:19:22.827Z,18.60
2022-10-18T16:21:49.989Z,21.08
2022-10-18T16:24:16.692Z,19.90
2022-10-18T16:26:43.417Z,18.67
2022-10-18T16:29:18.655Z,18.23
2022-10-18T16:31:46.689Z,18.90
2022-10-18T16:34:14.733Z,17.88
2022-10-18T16:36:41.482Z,20.08
2022-10-18T16:39:16.256Z,18.65
2022-10-18T16:41:43.309Z,20.53
2022-10-18T16:44:09.792Z,19.00
2022-10-18T16:46:36.704Z,18.70
2022-10-18T16:49:03.972Z,18.60
2022-10-18T16:51:30.481Z,18.95
2022-10-18T16:53:57.355Z,22.00
2022-10-18T16:56:30.326Z,22.10
2022-10-18T16:58:58.005Z,27.42
2022-10-18T17:01:25.165Z,22.15
2022-10-18T17:03:53.416Z,23.40
2022-10-18T17:06:26.950Z,20.20
2022-10-18T17:08:54.498Z,22.70
2022-10-18T17:11:23.368Z,20.83
2022-10-18T17:13:50.214Z,23.80
2022-10-18T17:19:03.194Z,24.00
2022-10-18T17:21:30.510Z,28.00
2022-10-18T17:24:00.459Z,28.30
2022-10-18T17:26:29.346Z,25.67
2022-10-18T17:28:59.143Z,30.98
2022-10-18T17:31:26.058Z,30.03
2022-10-18T17:33:54.672Z,27.45
2022-10-18T17:36:22.135Z,29.75
2022-10-18T17:38:52.517Z,27.45
2022-10-18T17:41:19.047Z,24.88
2022-10-18T17:43:45.593Z,28.30
2022-10-18T17:46:14.207Z,24.05
2022-10-18T17:48:41.678Z,27.30
2022-10-18T17:51:13.869Z,25.50
2022-10-18T17:53:40.350Z,23.85
2022-10-18T17:56:07.826Z,24.13
2022-10-18T17:58:35.254Z,24.15
2022-10-18T18:01:16.754Z,25.55
2022-10-18T18:03:43.498Z,27.65
2022-10-18T18:06:21.480Z,26.45
2022-10-18T18:08:48.905Z,29.10
2022-10-18T18:11:17.041Z,32.15
2022-10-18T18:13:43.593Z,29.10
2022-10-18T18:16:25.710Z,34.75
2022-10-18T18:18:53.909Z,37.55
2022-10-18T18:21:20.694Z,36.93
2022-10-18T18:23:48.321Z,35.95
2022-10-18T18:26:15.561Z,50.10
2022-10-18T18:28:42.338Z,37.42
2022-10-18T18:31:14.270Z,32.42
2022-10-18T18:33:40.825Z,35.07
2022-10-18T18:36:08.816Z,28.70
2022-10-18T18:38:36.994Z,30.75
2022-10-18T18:41:07.553Z,31.35
2022-10-18T18:43:34.899Z,34.25
2022-10-18T18:46:01.865Z,27.93
2022-10-18T18:48:29.335Z,28.95
2022-10-18T18:50:55.934Z,27.48
2022-10-18T18:53:26.001Z,27.02
2022-10-18T18:56:04.374Z,22.70
2022-10-18T18:58:32.062Z,25.23
2022-10-18T19:00:58.670Z,24.60
2022-10-18T19:03:25.320Z,22.40
2022-10-18T19:05:51.729Z,22.33
2022-10-18T19:08:18.206Z,21.23
2022-10-18T19:10:48.950Z,21.97
2022-10-18T19:13:15.506Z,20.90
2022-10-18T19:15:42.209Z,26.05
2022-10-18T19:18:08.770Z,19.10
2022-10-18T19:20:35.427Z,22.02
2022-10-18T19:23:01.890Z,20.00
2022-10-18T19:25:28.469Z,19.90
2022-10-18T19:27:55.599Z,20.35
2022-10-18T19:30:22.148Z,19.42
2022-10-18T19:32:52.532Z,20.02
2022-10-18T19:35:19.011Z,21.80
2022-10-18T19:37:46.168Z,20.23
2022-10-18T19:40:12.635Z,21.77
2022-10-18T19:42:39.182Z,23.67
2022-10-18T19:45:06.146Z,22.35
2022-10-18T19:47:33.041Z,20.60
2022-10-18T19:49:59.627Z,22.73
2022-10-18T19:52:28.305Z,22.50
2022-10-18T19:54:54.719Z,19.70
2022-10-18T19:57:21.160Z,22.08
2022-10-18T19:59:47.622Z,18.80
2022-10-18T20:02:17.250Z,18.33
2022-10-18T20:04:43.720Z,19.17
2022-10-18T20:07:10.161Z,21.38
2022-10-18T20:09:36.689Z,21.10
2022-10-18T20:12:03.507Z,20.83
2022-10-18T20:14:30.083Z,18.45
2022-10-18T20:16:56.608Z,18.77
2022-10-18T20:19:23.130Z,21.67
2022-10-18T20:21:49.697Z,20.58
2022-10-18T20:24:16.270Z,23.03
2022-10-18T20:26:43.710Z,20.92
2022-10-18T20:29:10.493Z,22.60
2022-10-18T20:31:39.042Z,22.90
2022-10-18T20:34:11.604Z,21.95
2022-10-18T20:36:38.329Z,20.23
2022-10-18T20:39:06.128Z,19.52
2022-10-18T20:41:35.251Z,20.20
2022-10-18T20:44:04.359Z,20.90
2022-10-18T20:46:32.990Z,22.55
2022-10-18T20:49:00.193Z,19.43
2022-10-18T20:51:27.068Z,19.35
2022-10-18T20:53:53.810Z,18.23
2022-10-18T20:56:23.449Z,18.63
2022-10-18T20:58:51.976Z,22.13
2022-10-18T21:01:21.164Z,19.03
2022-10-18T21:03:49.281Z,25.60
2022-10-18T21:06:21.111Z,21.65
2022-10-18T21:08:51.839Z,19.27
2022-10-18T21:11:18.617Z,17.90
2022-10-18T21:13:50.511Z,17.23
2022-10-18T21:16:16.961Z,19.95
2022-10-18T21:18:43.526Z,18.55
2022-10-18T21:21:16.105Z,20.65
2022-10-18T21:23:43.251Z,21.40
2022-10-18T21:26:21.315Z,19.27
2022-10-18T21:28:50.337Z,19.80
2022-10-18T21:31:21.806Z,20.60
2022-10-18T21:33:53.407Z,18.50
2022-10-18T21:36:20.277Z,23.52
2022-10-18T21:38:46.838Z,22.17
2022-10-18T21:41:16.646Z,23.40
2022-10-18T21:43:46.121Z,15.88
2022-10-18T21:46:14.151Z,23.77
2022-10-18T21:48:46.748Z,20.88
2022-10-18T21:51:15.611Z,20.00
2022-10-18T21:53:45.877Z,18.77
2022-10-18T21:56:14.938Z,18.80
2022-10-18T21:58:42.416Z,24.85
2022-10-18T22:01:11.148Z,17.63
2022-10-18T22:03:38.004Z,20.03
2022-10-18T22:06:13.610Z,18.20
2022-10-18T22:09:01.538Z,13.95
2022-10-18T22:11:54.759Z,14.20
2022-10-18T22:14:22.505Z,16.80
2022-10-18T22:16:49.765Z,15.33
2022-10-18T22:19:16.564Z,16.02
2022-10-18T22:21:43.147Z,15.00
2022-10-18T22:24:10.011Z,16.08
2022-10-18T22:26:38.985Z,14.43
2022-10-18T22:29:12.376Z,17.23
2022-10-18T23:05:59.954Z,11.77
2022-10-18T23:16:04.500Z,15.27
2022-10-18T23:18:32.144Z,12.45
2022-10-18T23:21:08.172Z,14.77
2022-10-18T23:23:36.466Z,12.15
2022-10-18T23:26:05.765Z,11.88
2022-10-18T23:28:37.529Z,11.60
2022-10-18T23:31:17.891Z,12.18
2022-10-18T23:33:46.148Z,12.73
2022-10-18T23:36:13.043Z,13.65
2022-10-18T23:38:40.063Z,10.35
2022-10-18T23:41:07.924Z,12.35
2022-10-18T23:43:34.789Z,12.55
2022-10-18T23:46:01.298Z,10.70
2022-10-18T23:48:28.209Z,10.98
2022-10-18T23:50:54.866Z,10.73
2022-10-18T23:53:22.081Z,10.85
2022-10-18T23:55:55.269Z,15.70
2022-10-18T23:58:22.213Z,10.13
